Time;durP1;ratioP1;P1;durP2;ratioP2;P2;SDS_P1;SDS_P2;PMS_P1;PMS_P2;Temp;Humidity;BMP_temperature;BMP_pressure;BME280_temperature;BME280_humidity;BME280_pressure;Samples;Min_cycle;Max_cycle;Signal;HPM_P1;HPM_P2
2021/11/14 00:00:58;;;;;;;16.15;11.48;;;;;;;9.25;84.45;98753.69;2622349;54;20038;-69
2021/11/14 00:03:28;;;;;;;14.85;11.38;;;;;;;9.25;84.90;98754.50;2621017;47;20573;-70
2021/11/14 00:05:58;;;;;;;15.18;11.02;;;;;;;9.24;84.91;98744.13;2622064;54;20038;-68
2021/11/14 00:08:28;;;;;;;15.15;10.80;;;;;;;9.28;84.65;98748.84;2622371;54;20134;-70
2021/11/14 00:11:04;;;;;;;17.65;12.65;;;;;;;9.32;84.41;98746.66;2623659;54;20054;-67
2021/11/14 00:13:37;;;;;;;17.80;13.02;;;;;;;9.27;84.50;98752.50;2623602;54;20038;-67
2021/11/14 00:16:10;;;;;;;19.33;13.60;;;;;;;9.18;84.53;98750.94;2623957;54;20030;-70
2021/11/14 00:18:40;;;;;;;18.30;13.02;;;;;;;9.14;84.67;98749.69;2626465;54;20030;-69
2021/11/14 00:21:20;;;;;;;19.00;13.75;;;;;;;9.09;84.90;98752.06;2625992;54;20018;-72
2021/11/14 00:23:51;;;;;;;20.55;13.85;;;;;;;9.04;85.36;98749.16;2624478;54;20118;-70
2021/11/14 00:26:21;;;;;;;16.05;12.20;;;;;;;9.05;85.28;98753.44;2623682;46;20031;-68
2021/11/14 00:28:54;;;;;;;16.23;11.35;;;;;;;9.07;85.62;98754.09;2623665;54;20534;-69
2021/11/14 00:31:25;;;;;;;13.90;10.60;;;;;;;9.07;85.33;98749.63;2621680;54;20042;-70
2021/11/14 00:33:55;;;;;;;13.10;9.70;;;;;;;9.05;85.35;98751.59;2622107;54;20037;-67
2021/11/14 00:36:28;;;;;;;13.77;9.98;;;;;;;9.05;85.58;98756.06;2622258;54;20059;-70
2021/11/14 00:39:01;;;;;;;12.93;9.68;;;;;;;9.03;85.25;98747.53;2622997;54;20023;-69
2021/11/14 00:41:31;;;;;;;13.70;10.10;;;;;;;9.03;85.69;98752.81;2622154;54;20074;-69
2021/11/14 00:44:07;;;;;;;13.27;10.27;;;;;;;9.05;85.31;98750.78;2621917;54;20045;-68
2021/11/14 00:46:39;;;;;;;12.20;9.25;;;;;;;8.99;85.27;98764.72;2620640;39;20455;-69
2021/11/14 00:49:12;;;;;;;16.27;10.20;;;;;;;8.99;85.54;98756.81;2620074;39;20446;-70
2021/11/14 00:51:43;;;;;;;10.77;8.40;;;;;;;8.99;85.79;98767.38;2619493;54;20027;-70
2021/11/14 00:54:17;;;;;;;11.60;9.57;;;;;;;8.96;85.55;98758.00;2619299;54;20545;-67
2021/11/14 00:56:49;;;;;;;10.38;8.50;;;;;;;8.97;85.71;98758.81;2620137;54;20033;-66
2021/11/14 00:59:22;;;;;;;12.10;8.80;;;;;;;8.97;85.71;98758.81;2619652;54;20549;-67
2021/11/14 01:01:51;;;;;;;12.00;9.00;;;;;;;8.98;86.13;98766.56;2618444;54;20041;-69
2021/11/14 01:04:25;;;;;;;8.85;7.95;;;;;;;9.02;86.25;98772.25;2618644;54;20022;-68
2021/11/14 01:06:55;;;;;;;9.80;8.43;;;;;;;9.04;86.30;98759.72;2618793;54;20053;-66
2021/11/14 01:09:28;;;;;;;12.07;9.30;;;;;;;9.08;86.14;98763.63;2618565;54;20038;-70
2021/11/14 01:11:58;;;;;;;12.00;9.70;;;;;;;9.06;85.73;98755.91;2617717;54;20166;-67
2021/11/14 01:14:30;;;;;;;12.93;10.05;;;;;;;9.09;85.86;98765.25;2617938;54;20034;-66
2021/11/14 01:17:00;;;;;;;12.20;9.40;;;;;;;9.09;85.61;98767.88;2618499;54;20030;-71
2021/11/14 01:19:30;;;;;;;12.85;9.75;;;;;;;9.06;85.61;98769.09;2618578;54;20031;-68
2021/11/14 01:22:00;;;;;;;11.68;9.00;;;;;;;9.03;85.67;98766.81;2618051;47;20030;-68
2021/11/14 01:24:33;;;;;;;11.98;9.32;;;;;;;9.07;85.97;98776.00;2618651;54;20098;-68
2021/11/14 01:27:03;;;;;;;13.30;10.40;;;;;;;9.10;85.77;98770.34;2618494;54;20061;-69
2021/11/14 01:29:35;;;;;;;15.65;10.30;;;;;;;9.10;85.89;98767.72;2618558;54;20026;-69
2021/11/14 01:32:06;;;;;;;13.55;10.02;;;;;;;9.11;85.42;98772.00;2617544;54;20041;-69
2021/11/14 01:34:35;;;;;;;11.65;9.02;;;;;;;9.06;85.70;98778.78;2618108;54;20062;-68
2021/11/14 01:37:06;;;;;;;12.52;10.23;;;;;;;9.03;86.13;98781.81;2618439;54;20034;-67
2021/11/14 01:39:35;;;;;;;11.68;9.32;;;;;;;9.03;86.12;98780.00;2618720;54;20061;-68
2021/11/14 01:42:06;;;;;;;14.57;9.63;;;;;;;9.03;86.26;98782.63;2618014;54;20041;-68
2021/11/14 01:44:38;;;;;;;13.38;9.70;;;;;;;9.03;86.01;98782.63;2618884;54;20027;-69
2021/11/14 01:47:09;;;;;;;13.38;9.52;;;;;;;9.05;86.10;98785.88;2619143;54;20590;-69
2021/11/14 01:49:38;;;;;;;12.40;9.43;;;;;;;9.03;86.08;98792.38;2618965;54;20027;-69
2021/11/14 01:52:18;;;;;;;12.02;8.50;;;;;;;9.03;85.90;98790.53;2618582;54;20034;-68
2021/11/14 01:54:51;;;;;;;10.57;8.57;;;;;;;9.07;86.50;98785.72;2618539;54;20022;-70
2021/11/14 01:57:22;;;;;;;11.48;9.10;;;;;;;9.09;86.27;98792.44;2618830;54;20121;-68
2021/11/14 01:59:54;;;;;;;10.90;8.45;;;;;;;9.09;86.04;98788.97;2622767;54;20034;-68
2021/11/14 02:02:24;;;;;;;10.85;8.23;;;;;;;9.10;86.28;98786.19;2619905;54;20050;-66
2021/11/14 02:04:54;;;;;;;11.98;8.65;;;;;;;9.08;85.63;98792.63;2623857;54;20031;-66
2021/11/14 02:07:24;;;;;;;13.07;8.80;;;;;;;9.05;85.80;98793.00;2624961;54;20037;-67
2021/11/14 02:09:54;;;;;;;12.60;9.93;;;;;;;9.01;85.75;98789.06;2624589;54;20623;-66
2021/11/14 02:12:24;;;;;;;10.23;8.68;;;;;;;8.95;86.02;98793.28;2623389;54;20026;-66
2021/11/14 02:14:56;;;;;;;9.88;7.75;;;;;;;8.92;86.07;98794.44;2623256;54;20066;-66
2021/11/14 02:17:25;;;;;;;10.80;7.95;;;;;;;8.92;86.15;98796.25;2622434;54;20030;-66
2021/11/14 02:19:58;;;;;;;7.13;5.82;;;;;;;8.87;85.96;98801.28;2623463;54;20030;-66
2021/11/14 02:22:27;;;;;;;7.68;6.20;;;;;;;8.82;86.29;98796.56;2624241;54;20030;-66
2021/11/14 02:24:57;;;;;;;6.20;5.60;;;;;;;8.80;86.32;98805.63;2624648;54;20030;-66
2021/11/14 02:27:27;;;;;;;8.48;7.00;;;;;;;8.75;86.31;98803.53;2626596;39;20450;-65
2021/11/14 02:29:57;;;;;;;10.07;7.20;;;;;;;8.72;86.37;98805.72;2626226;54;20034;-66
2021/11/14 02:32:27;;;;;;;7.18;6.47;;;;;;;8.70;86.57;98805.91;2625816;54;20031;-66
2021/11/14 02:35:19;;;;;;;5.53;5.03;;;;;;;8.66;86.27;98812.53;2626271;54;20043;-67
2021/11/14 02:37:48;;;;;;;4.85;3.97;;;;;;;8.56;85.97;98817.22;2626427;39;20403;-66
2021/11/14 02:40:19;;;;;;;4.65;4.25;;;;;;;8.52;85.83;98810.69;2626600;39;20391;-66
2021/11/14 02:42:51;;;;;;;6.10;4.93;;;;;;;8.51;86.18;98823.03;2626274;54;20022;-66
2021/11/14 02:45:23;;;;;;;5.68;5.13;;;;;;;8.47;85.59;98821.75;2625734;54;20585;-66
2021/11/14 02:47:55;;;;;;;6.70;6.00;;;;;;;8.42;85.78;98822.28;2626185;54;20058;-66
2021/11/14 02:50:28;;;;;;;6.22;5.68;;;;;;;8.38;85.28;98828.09;2625636;54;20049;-66
2021/11/14 02:52:57;;;;;;;6.88;6.20;;;;;;;8.26;85.12;98827.66;2624045;54;20037;-67
2021/11/14 02:55:29;;;;;;;7.72;6.30;;;;;;;8.25;85.39;98827.84;2624617;54;20038;-67
2021/11/14 02:57:59;;;;;;;7.80;6.72;;;;;;;8.23;85.04;98830.66;2624789;39;20445;-67
2021/11/14 03:00:34;;;;;;;7.03;6.40;;;;;;;8.23;85.25;98827.19;2623873;54;20030;-66
2021/11/14 03:03:03;;;;;;;7.60;6.90;;;;;;;8.21;85.48;98831.84;2624086;54;20030;-68
2021/11/14 03:05:37;;;;;;;9.35;8.45;;;;;;;8.12;84.91;98834.53;2625103;39;20344;-66
2021/11/14 03:08:07;;;;;;;8.70;7.90;;;;;;;8.06;85.18;98829.13;2624121;54;20031;-66
2021/11/14 03:10:37;;;;;;;9.52;8.63;;;;;;;8.07;85.34;98833.41;2624532;54;20038;-67
2021/11/14 03:13:10;;;;;;;10.02;8.98;;;;;;;8.10;85.47;98833.88;2624748;54;20018;-66
2021/11/14 03:15:44;;;;;;;9.95;9.05;;;;;;;8.06;85.01;98832.59;2625567;54;20553;-66
2021/11/14 03:18:15;;;;;;;9.40;8.50;;;;;;;8.08;85.00;98837.66;2625183;54;20027;-66
2021/11/14 03:20:50;;;;;;;9.38;8.13;;;;;;;8.08;84.95;98843.78;2625454;54;20022;-66
2021/11/14 03:23:20;;;;;;;8.30;7.53;;;;;;;8.04;85.04;98831.13;2625141;54;20023;-67
2021/11/14 03:25:50;;;;;;;8.43;7.63;;;;;;;7.99;84.60;98839.53;2625793;54;20557;-66
2021/11/14 03:28:22;;;;;;;7.18;6.50;;;;;;;7.94;84.87;98845.34;2625711;54;20038;-66
2021/11/14 03:30:53;;;;;;;8.48;7.35;;;;;;;7.90;84.76;98848.50;2625485;54;20030;-66
2021/11/14 03:33:23;;;;;;;7.07;6.38;;;;;;;7.86;84.79;98845.38;2625691;54;20034;-67
2021/11/14 03:35:59;;;;;;;8.68;6.78;;;;;;;7.82;84.56;98846.72;2625149;54;20042;-67
2021/11/14 03:38:31;;;;;;;8.18;6.70;;;;;;;7.81;84.52;98849.53;2621979;54;20043;-68
2021/11/14 03:41:02;;;;;;;9.15;6.47;;;;;;;7.79;84.64;98854.97;2622749;54;20034;-66
2021/11/14 03:43:33;;;;;;;11.07;7.57;;;;;;;7.80;84.77;98858.44;2622707;54;20597;-67
2021/11/14 03:46:03;;;;;;;7.82;5.82;;;;;;;7.75;84.96;98860.75;2626287;54;20025;-68
2021/11/14 03:48:36;;;;;;;7.70;4.60;;;;;;;7.74;84.87;98859.94;2626023;54;20038;-69
2021/11/14 03:51:09;;;;;;;6.20;5.60;;;;;;;7.76;85.04;98865.03;2626181;39;20483;-66
2021/11/14 03:53:38;;;;;;;4.47;4.07;;;;;;;7.79;85.32;98865.47;2626224;54;20026;-67
2021/11/14 03:56:08;;;;;;;5.03;4.53;;;;;;;7.78;85.06;98871.75;2626737;54;20026;-66
2021/11/14 03:58:39;;;;;;;4.63;4.10;;;;;;;7.80;84.97;98869.78;2626268;54;20026;-67
2021/11/14 04:01:13;;;;;;;6.50;3.58;;;;;;;7.83;84.87;98872.03;2626375;54;20561;-67
2021/11/14 04:03:43;;;;;;;4.22;3.83;;;;;;;7.87;84.85;98872.53;2625313;54;20030;-66
2021/11/14 04:06:17;;;;;;;5.75;4.03;;;;;;;7.86;84.58;98871.69;2626727;39;20668;-66
2021/11/14 04:08:47;;;;;;;6.97;4.13;;;;;;;7.87;84.87;98875.97;2625482;54;20029;-66
2021/11/14 04:11:17;;;;;;;6.07;4.05;;;;;;;7.85;84.76;98882.41;2626212;39;20446;-66
2021/11/14 04:13:46;;;;;;;5.45;4.13;;;;;;;7.86;84.99;98881.41;2625076;54;20042;-67
2021/11/14 04:16:16;;;;;;;4.10;3.70;;;;;;;7.83;84.91;98882.56;2625389;54;20590;-67
2021/11/14 04:18:45;;;;;;;5.72;4.03;;;;;;;7.85;85.18;98887.69;2625099;54;20082;-67
2021/11/14 04:21:17;;;;;;;6.10;4.40;;;;;;;7.92;85.50;98883.38;2624745;54;20022;-67
2021/11/14 04:23:47;;;;;;;5.80;4.35;;;;;;;7.92;85.46;98889.44;2623033;47;20039;-67
2021/11/14 04:26:17;;;;;;;6.60;4.13;;;;;;;7.94;85.06;98884.81;2621458;54;20058;-67
2021/11/14 04:28:47;;;;;;;5.45;4.57;;;;;;;7.95;84.87;98885.63;2622713;54;20039;-67
2021/11/14 04:31:17;;;;;;;5.75;4.30;;;;;;;7.92;84.87;98886.81;2622814;54;20042;-67
2021/11/14 04:33:47;;;;;;;8.90;5.35;;;;;;;7.89;85.07;98888.97;2626213;54;20039;-66
2021/11/14 04:36:19;;;;;;;8.90;5.82;;;;;;;7.83;84.85;98887.84;2626526;54;20049;-66
2021/11/14 04:38:49;;;;;;;9.32;6.05;;;;;;;7.78;84.87;98892.81;2626006;47;20577;-66
2021/11/14 04:41:18;;;;;;;9.00;6.47;;;;;;;7.77;85.61;98891.16;2625897;54;20031;-67
2021/11/14 04:43:48;;;;;;;10.73;6.28;;;;;;;7.81;85.71;98896.91;2625730;54;20065;-66
2021/11/14 04:46:18;;;;;;;8.70;6.30;;;;;;;7.86;85.72;98897.22;2625967;39;20455;-67
2021/11/14 04:48:47;;;;;;;11.50;6.88;;;;;;;7.86;85.70;98891.94;2624167;54;20031;-67
2021/11/14 04:51:19;;;;;;;13.98;8.52;;;;;;;7.87;85.53;98896.22;2624411;54;21118;-66
2021/11/14 04:53:49;;;;;;;14.38;8.65;;;;;;;7.82;85.58;98896.72;2626286;54;20030;-67
2021/11/14 04:56:19;;;;;;;13.23;8.65;;;;;;;7.81;85.52;98910.88;2626309;39;20502;-67
2021/11/14 04:58:49;;;;;;;13.13;8.70;;;;;;;7.82;85.68;98898.53;2625408;47;20049;-66
2021/11/14 05:01:19;;;;;;;10.40;7.13;;;;;;;7.79;85.79;98897.06;2625966;54;20038;-66
2021/11/14 05:03:49;;;;;;;11.93;7.50;;;;;;;7.83;85.95;98897.53;2625763;54;20019;-67
2021/11/14 05:06:21;;;;;;;13.20;7.85;;;;;;;7.85;85.27;98906.09;2625806;54;20030;-67
2021/11/14 05:08:50;;;;;;;14.35;8.70;;;;;;;7.78;85.52;98913.84;2625651;54;20053;-67
2021/11/14 05:11:20;;;;;;;15.77;8.93;;;;;;;7.74;85.48;98911.75;2623914;54;20046;-67
2021/11/14 05:13:50;;;;;;;16.88;9.93;;;;;;;7.74;86.10;98909.94;2622917;51;20035;-67
2021/11/14 05:16:19;;;;;;;17.63;10.23;;;;;;;7.69;86.01;98926.22;2621362;54;20038;-66
2021/11/14 05:18:49;;;;;;;19.55;10.52;;;;;;;7.72;86.59;98919.00;2619905;54;20089;-67
2021/11/14 05:21:22;;;;;;;21.35;10.43;;;;;;;7.72;86.19;98925.09;2621185;54;20037;-66
2021/11/14 05:23:52;;;;;;;25.00;12.80;;;;;;;7.65;86.31;98921.47;2622913;54;20775;-66
2021/11/14 05:26:21;;;;;;;27.05;12.25;;;;;;;7.64;86.55;98922.47;2622055;54;20871;-66
2021/11/14 05:28:51;;;;;;;28.48;12.55;;;;;;;7.69;87.18;98928.06;2619927;54;20078;-66
2021/11/14 05:31:21;;;;;;;35.95;14.05;;;;;;;7.71;86.92;98933.94;2620408;54;20030;-67
2021/11/14 05:33:50;;;;;;;26.58;13.18;;;;;;;7.69;87.06;98938.56;2621153;39;20145;-67
2021/11/14 05:36:23;;;;;;;30.88;13.05;;;;;;;7.70;86.93;98937.56;2620088;47;20034;-67
2021/11/14 05:38:53;;;;;;;36.17;14.10;;;;;;;7.72;87.32;98943.50;2620543;39;20418;-67
2021/11/14 05:41:22;;;;;;;27.80;12.77;;;;;;;7.68;86.95;98940.38;2619926;54;20039;-66
2021/11/14 05:43:52;;;;;;;29.40;12.93;;;;;;;7.69;87.14;98949.09;2621651;54;20070;-67
2021/11/14 05:46:21;;;;;;;37.40;15.45;;;;;;;7.69;87.02;98951.72;2622402;47;20023;-67
2021/11/14 05:48:51;;;;;;;34.30;13.02;;;;;;;7.64;87.08;98954.06;2622605;54;20071;-66
2021/11/14 05:51:25;;;;;;;31.08;12.63;;;;;;;7.61;87.63;98957.03;2623201;54;20030;-67
2021/11/14 05:53:54;;;;;;;37.30;14.00;;;;;;;7.64;87.61;98954.06;2622290;47;20030;-68
2021/11/14 05:56:24;;;;;;;24.88;11.50;;;;;;;7.63;87.64;98955.03;2623715;54;20034;-67
2021/11/14 05:58:57;;;;;;;34.83;12.15;;;;;;;7.65;88.13;98960.97;2625855;39;20461;-67
2021/11/14 06:01:30;;;;;;;35.67;12.57;;;;;;;7.65;88.09;98963.59;2623973;54;20604;-67
2021/11/14 06:04:06;;;;;;;27.05;11.80;;;;;;;7.68;87.96;98969.34;2624662;54;20045;-67
2021/11/14 06:06:38;;;;;;;26.63;11.13;;;;;;;7.69;88.29;98970.97;2624747;54;20042;-68
2021/11/14 06:09:08;;;;;;;25.20;10.75;;;;;;;7.69;88.08;98975.41;2625229;54;20038;-67
2021/11/14 06:11:37;;;;;;;22.95;10.27;;;;;;;7.70;87.70;98975.22;2624741;54;20050;-68
2021/11/14 06:14:07;;;;;;;22.98;10.90;;;;;;;7.79;87.93;98983.09;2624105;54;20062;-66
2021/11/14 06:16:37;;;;;;;48.85;23.15;;;;;;;7.83;87.85;98987.84;2623888;54;20022;-66
2021/11/14 06:19:06;;;;;;;25.88;11.30;;;;;;;7.84;87.81;98988.69;2624221;54;20015;-67
2021/11/14 06:21:38;;;;;;;31.13;11.57;;;;;;;7.83;87.55;98998.38;2624678;54;20030;-67
2021/11/14 06:24:08;;;;;;;25.05;11.63;;;;;;;7.81;87.30;98995.09;2624497;54;20042;-66
2021/11/14 06:26:38;;;;;;;27.20;11.93;;;;;;;7.81;87.31;99005.63;2624337;54;20026;-68
2021/11/14 06:29:07;;;;;;;31.50;13.15;;;;;;;7.83;87.79;99010.72;2625046;54;20029;-66
2021/11/14 06:31:37;;;;;;;26.80;13.18;;;;;;;7.82;87.51;99006.44;2623881;54;20030;-66
2021/11/14 06:34:06;;;;;;;35.35;14.73;;;;;;;7.79;87.20;99007.59;2624896;54;20039;-67
2021/11/14 06:36:39;;;;;;;36.58;15.65;;;;;;;7.73;87.33;99003.03;2624355;54;20074;-68
2021/11/14 06:39:08;;;;;;;31.98;14.25;;;;;;;7.71;87.43;99015.53;2623614;54;20034;-68
2021/11/14 06:41:38;;;;;;;31.55;13.77;;;;;;;7.71;87.69;99012.88;2623724;54;20114;-67
2021/11/14 06:44:07;;;;;;;27.38;12.30;;;;;;;7.70;87.53;99022.59;2624624;54;20031;-66
2021/11/14 06:46:37;;;;;;;25.25;13.07;;;;;;;7.73;87.82;99029.34;2624177;54;20027;-67
2021/11/14 06:49:07;;;;;;;28.45;15.13;;;;;;;7.82;88.02;99027.50;2623651;54;20039;-69
2021/11/14 06:51:39;;;;;;;18.20;10.60;;;;;;;7.83;87.50;99039.66;2623397;54;20038;-66
2021/11/14 06:54:09;;;;;;;21.80;11.10;;;;;;;7.84;86.93;99034.25;2623796;54;20038;-68
2021/11/14 06:56:39;;;;;;;18.88;10.55;;;;;;;7.82;87.16;99038.03;2623910;54;20520;-66
2021/11/14 06:59:08;;;;;;;19.55;10.75;;;;;;;7.81;86.63;99044.28;2623904;54;20030;-68
2021/11/14 07:01:38;;;;;;;20.70;11.20;;;;;;;7.82;86.80;99048.56;2624212;54;20053;-66
2021/11/14 08:02:46;;;;;;;8.02;6.53;;;;;;;7.95;85.81;99110.22;2603991;46;20039;-67
2021/11/14 08:05:17;;;;;;;8.38;6.10;;;;;;;8.00;86.36;99115.00;2620249;54;20114;-66
2021/11/14 08:07:48;;;;;;;6.78;5.85;;;;;;;8.04;85.82;99108.41;2620503;54;20046;-70
2021/11/14 08:10:19;;;;;;;6.07;5.47;;;;;;;8.10;85.97;99118.25;2620591;39;20488;-67
2021/11/14 08:12:49;;;;;;;6.43;5.50;;;;;;;8.09;85.39;99121.06;2621777;54;20038;-66
2021/11/14 08:15:21;;;;;;;6.13;5.53;;;;;;;8.13;85.61;99110.00;2623379;54;20027;-66
2021/11/14 08:17:53;;;;;;;6.50;4.88;;;;;;;8.15;85.10;99117.72;2623550;47;20027;-66
2021/11/14 08:20:24;;;;;;;7.13;4.78;;;;;;;8.15;85.21;99109.84;2624206;54;20042;-66
2021/11/14 08:22:59;;;;;;;5.72;5.07;;;;;;;8.17;84.98;99110.50;2623452;54;20041;-66
2021/11/14 08:25:30;;;;;;;6.32;5.72;;;;;;;8.18;85.65;99120.03;2622788;54;20037;-66
2021/11/14 08:28:00;;;;;;;6.63;5.75;;;;;;;8.20;85.59;99115.41;2623486;54;20049;-68
2021/11/14 08:30:30;;;;;;;8.57;7.57;;;;;;;8.20;85.23;99118.03;2623563;54;20597;-67
2021/11/14 08:33:03;;;;;;;8.05;7.25;;;;;;;8.15;85.13;99123.00;2623527;54;20038;-67
2021/11/14 08:35:32;;;;;;;10.68;8.23;;;;;;;8.23;85.91;99120.34;2623251;54;20035;-65
2021/11/14 08:38:03;;;;;;;12.80;9.60;;;;;;;8.26;85.21;99130.53;2623168;54;20042;-67
2021/11/14 08:40:35;;;;;;;14.57;10.02;;;;;;;8.22;85.37;99129.25;2622794;54;20030;-65
2021/11/14 08:43:08;;;;;;;15.75;11.88;;;;;;;8.22;85.62;99125.78;2623700;54;20030;-66
2021/11/14 08:45:39;;;;;;;17.48;13.00;;;;;;;8.26;85.65;99137.63;2624339;39;20453;-66
2021/11/14 08:48:11;;;;;;;18.95;13.98;;;;;;;8.30;85.42;99136.31;2623154;46;20050;-66
2021/11/14 08:50:41;;;;;;;19.88;13.30;;;;;;;8.30;85.75;99139.75;2622762;54;20581;-66
2021/11/14 08:53:11;;;;;;;20.85;13.90;;;;;;;8.33;85.89;99151.78;2621579;54;20042;-67
2021/11/14 08:55:40;;;;;;;17.65;12.27;;;;;;;8.30;85.89;99154.75;2620582;54;20045;-68
2021/11/14 08:58:31;;;;;;;15.07;11.88;;;;;;;8.27;85.44;99150.63;2623430;54;20033;-66
2021/11/14 09:01:01;;;;;;;17.45;12.98;;;;;;;8.23;85.46;99159.03;2622393;54;20034;-65
2021/11/14 09:03:34;;;;;;;17.70;13.15;;;;;;;8.23;85.44;99162.47;2622657;54;20045;-67
2021/11/14 09:06:05;;;;;;;16.88;13.95;;;;;;;8.34;85.69;99171.84;2621362;54;20026;-67
2021/11/14 09:08:35;;;;;;;23.15;15.60;;;;;;;8.37;84.94;99171.56;2621883;54;20086;-65
2021/11/14 09:11:05;;;;;;;21.00;16.02;;;;;;;8.38;84.83;99175.81;2621704;54;20031;-67
2021/11/14 09:13:35;;;;;;;20.77;15.98;;;;;;;8.39;85.33;99186.19;2624037;54;20035;-66
2021/11/14 09:16:05;;;;;;;19.52;14.98;;;;;;;8.39;85.37;99182.72;2625033;47;20119;-67
2021/11/14 09:18:37;;;;;;;25.05;16.08;;;;;;;8.49;85.41;99186.00;2625102;54;20033;-67
2021/11/14 09:21:07;;;;;;;20.67;15.20;;;;;;;8.53;85.04;99192.56;2625637;39;20417;-67
2021/11/14 09:23:36;;;;;;;23.33;16.65;;;;;;;8.56;84.98;99194.03;2625007;54;20031;-65
2021/11/14 09:26:08;;;;;;;23.17;18.30;;;;;;;8.61;84.91;99197.81;2624216;54;20027;-65
2021/11/14 09:28:39;;;;;;;23.50;17.92;;;;;;;8.66;84.34;99200.75;2624141;54;20061;-67
2021/11/14 09:31:09;;;;;;;23.45;18.80;;;;;;;8.68;84.42;99196.13;2623184;54;20038;-65
2021/11/14 09:33:42;;;;;;;24.15;18.48;;;;;;;8.71;84.31;99191.50;2623123;54;20022;-65
2021/11/14 09:36:12;;;;;;;25.15;19.85;;;;;;;8.71;84.06;99202.06;2623787;39;20437;-67
2021/11/14 09:38:42;;;;;;;30.58;20.88;;;;;;;8.70;84.06;99198.59;2623373;54;20593;-65
2021/11/14 09:41:12;;;;;;;31.40;21.90;;;;;;;8.67;83.55;99207.66;2624101;54;20035;-65
2021/11/14 09:43:41;;;;;;;29.15;21.75;;;;;;;8.65;83.69;99208.81;2624220;54;20095;-66
2021/11/14 09:46:31;;;;;;;28.85;22.15;;;;;;;8.64;84.00;99209.81;2623598;54;20082;-67
2021/11/14 09:49:05;;;;;;;29.98;23.30;;;;;;;8.68;84.26;99213.75;2624195;54;20550;-67
2021/11/14 09:51:34;;;;;;;29.30;22.40;;;;;;;8.68;83.81;99216.38;2623341;54;20042;-67
2021/11/14 09:54:04;;;;;;;29.75;22.70;;;;;;;8.71;84.08;99210.78;2624207;54;20026;-66
2021/11/14 09:56:34;;;;;;;28.45;20.80;;;;;;;8.76;84.02;99218.19;2624194;54;20030;-66
2021/11/14 09:59:03;;;;;;;30.65;23.13;;;;;;;8.78;83.72;99221.47;2623855;54;20031;-67
2021/11/14 10:01:33;;;;;;;27.80;22.27;;;;;;;8.79;83.55;99226.56;2623627;54;20035;-67
2021/11/14 10:04:07;;;;;;;27.15;22.35;;;;;;;8.81;83.12;99226.38;2622741;54;20038;-67
2021/11/14 10:06:37;;;;;;;;;;;;;;;8.76;83.51;99220.81;2623569;54;20038;-66
2021/11/14 10:09:08;;;;;;;28.10;21.50;;;;;;;8.78;83.86;99222.28;2623253;54;19946;-65
2021/11/14 10:11:41;;;;;;;27.35;21.35;;;;;;;8.84;83.86;99224.25;2622135;47;20175;-66
2021/11/14 10:14:11;;;;;;;26.38;20.85;;;;;;;8.83;83.58;99219.97;2622907;54;20078;-66
2021/11/14 10:16:41;;;;;;;27.60;21.17;;;;;;;8.84;83.60;99221.59;2623097;39;20450;-66
2021/11/14 10:19:16;;;;;;;48.67;38.13;;;;;;;8.91;83.67;99219.94;2622312;54;20041;-65
2021/11/14 10:21:47;;;;;;;26.83;20.92;;;;;;;9.00;83.43;99225.97;2622011;54;20038;-67
2021/11/14 10:24:17;;;;;;;26.75;21.27;;;;;;;9.05;83.15;99220.19;2622246;54;20078;-66
2021/11/14 10:26:47;;;;;;;28.45;21.13;;;;;;;9.08;82.92;99222.50;2623113;54;20038;-66
2021/11/14 10:29:18;;;;;;;25.27;21.05;;;;;;;9.06;82.82;99227.09;2623341;46;20042;-66
2021/11/14 10:31:48;;;;;;;23.75;19.95;;;;;;;9.13;82.90;99222.78;2622601;47;20037;-67
2021/11/14 10:34:20;;;;;;;22.27;18.27;;;;;;;9.18;82.01;99223.09;2623376;54;20042;-65
2021/11/14 10:36:58;;;;;;;21.95;18.52;;;;;;;9.19;81.61;99227.38;2622650;54;20089;-67
2021/11/14 10:39:38;;;;;;;22.67;19.23;;;;;;;9.18;81.04;99218.66;2623172;54;20034;-66
2021/11/14 10:42:15;;;;;;;23.25;19.40;;;;;;;9.13;82.03;99222.78;2623375;54;20042;-74
2021/11/14 10:44:52;;;;;;;23.30;20.17;;;;;;;9.23;81.78;99226.03;2623647;54;20030;-67
2021/11/14 10:47:24;;;;;;;21.08;18.77;;;;;;;9.23;80.67;99225.22;2623481;39;20445;-66
2021/11/14 10:50:04;;;;;;;21.63;18.92;;;;;;;9.21;81.19;99214.81;2623083;54;20117;-67
2021/11/14 10:52:35;;;;;;;23.80;19.48;;;;;;;9.24;81.46;99222.41;2623060;47;20034;-66
2021/11/14 10:55:08;;;;;;;21.15;18.33;;;;;;;9.30;81.28;99216.41;2622706;47;20037;-66
2021/11/14 10:57:40;;;;;;;23.83;19.77;;;;;;;9.28;80.97;99214.97;2623024;54;20038;-67
2021/11/14 11:00:13;;;;;;;22.08;19.77;;;;;;;9.43;80.55;99207.94;2622717;54;20041;-66
2021/11/14 11:02:43;;;;;;;24.50;20.58;;;;;;;9.58;80.73;99210.63;2621591;47;20029;-66
2021/11/14 11:05:19;;;;;;;22.50;20.17;;;;;;;9.70;80.49;99205.78;2621115;47;20041;-67
2021/11/14 11:07:59;;;;;;;22.45;19.95;;;;;;;9.83;80.25;99204.16;2621280;47;20034;-66
2021/11/14 11:10:33;;;;;;;19.52;17.42;;;;;;;9.93;79.98;99203.94;2622828;54;20035;-67
2021/11/14 11:13:05;;;;;;;19.80;17.70;;;;;;;10.04;79.56;99207.94;2621942;54;20037;-67
2021/11/14 11:15:41;;;;;;;21.30;19.10;;;;;;;10.03;78.84;99207.13;2622171;54;20569;-66
2021/11/14 11:18:13;;;;;;;22.58;19.98;;;;;;;9.96;79.40;99208.88;2621276;47;20037;-68
2021/11/14 11:20:47;;;;;;;22.63;20.23;;;;;;;10.00;78.77;99214.59;2621684;54;20035;-68
2021/11/14 11:23:18;;;;;;;22.38;19.98;;;;;;;9.89;79.36;99215.84;2621570;54;20030;-66
2021/11/14 11:25:50;;;;;;;20.35;18.00;;;;;;;9.82;78.53;99214.91;2621005;54;20022;-67
2021/11/14 11:28:22;;;;;;;20.20;18.05;;;;;;;9.75;79.26;99225.34;2621194;39;20403;-66
2021/11/14 11:30:55;;;;;;;19.75;17.65;;;;;;;9.70;78.70;99227.69;2621828;54;20034;-66
2021/11/14 11:33:27;;;;;;;21.08;18.88;;;;;;;9.66;79.24;99231.69;2622476;54;20026;-66
2021/11/14 11:35:59;;;;;;;23.38;18.88;;;;;;;9.60;79.15;99227.94;2623643;54;20035;-65
2021/11/14 11:38:30;;;;;;;24.63;21.00;;;;;;;9.51;79.44;99236.06;2622694;54;20030;-67
2021/11/14 11:41:02;;;;;;;23.05;20.55;;;;;;;9.40;79.80;99234.69;2622375;54;20027;-66
2021/11/14 11:43:33;;;;;;;21.40;19.10;;;;;;;9.37;79.82;99245.56;2622818;47;20035;-67
2021/11/14 11:46:06;;;;;;;27.15;21.73;;;;;;;9.35;79.78;99242.31;2623979;54;20034;-65
2021/11/14 11:48:40;;;;;;;31.23;25.92;;;;;;;9.34;80.57;99238.81;2622875;54;20033;-68
2021/11/14 11:51:13;;;;;;;;;;;;;;;9.37;80.13;99241.13;2623415;54;20034;-66
2021/11/14 11:53:44;;;;;;;24.15;21.10;;;;;;;9.35;79.22;99242.31;2623503;54;19947;-66
2021/11/14 11:56:17;;;;;;;22.80;19.83;;;;;;;9.29;79.91;99240.34;2623267;54;20049;-67
2021/11/14 11:58:49;;;;;;;25.08;20.15;;;;;;;9.27;79.98;99248.44;2623889;54;20038;-65
2021/11/14 12:01:25;;;;;;;24.98;20.35;;;;;;;9.16;80.10;99247.00;2622861;54;20057;-66
2021/11/14 12:03:56;;;;;;;25.02;21.38;;;;;;;9.14;80.46;99246.38;2623332;46;20058;-66
2021/11/14 12:06:29;;;;;;;27.13;21.98;;;;;;;9.16;80.09;99238.28;2623206;54;20030;-66
2021/11/14 12:09:00;;;;;;;26.40;20.95;;;;;;;9.15;80.39;99241.91;2622548;54;20038;-66
2021/11/14 12:11:32;;;;;;;29.55;22.80;;;;;;;9.13;80.36;99243.88;2623696;39;20418;-67
2021/11/14 12:14:15;;;;;;;27.70;23.42;;;;;;;9.12;80.36;99242.25;2622271;54;20038;-68
2021/11/14 12:16:57;;;;;;;23.80;18.92;;;;;;;9.15;80.67;99244.56;2621165;47;20023;-65
2021/11/14 12:19:26;;;;;;;27.63;22.15;;;;;;;9.24;80.95;99246.16;2620817;54;20037;-66
2021/11/14 12:22:02;;;;;;;24.30;20.90;;;;;;;9.30;80.34;99245.44;2620865;54;20033;-66
2021/11/14 12:24:34;;;;;;;28.45;23.00;;;;;;;9.34;80.42;99248.56;2620085;47;20043;-67
2021/11/14 12:27:03;;;;;;;31.63;25.58;;;;;;;9.32;80.42;99253.19;2620848;54;20031;-66
2021/11/14 12:29:41;;;;;;;28.20;22.17;;;;;;;9.29;80.32;99256.19;2621922;47;20585;-65
2021/11/14 12:32:26;;;;;;;27.60;22.90;;;;;;;9.16;79.77;99254.09;2624551;54;20065;-66
2021/11/14 12:35:03;;;;;;;29.70;23.77;;;;;;;9.10;80.52;99253.00;2624640;54;20040;-66
2021/11/14 12:37:35;;;;;;;26.58;22.38;;;;;;;9.10;80.52;99257.41;2624324;54;20538;-65
2021/11/14 12:40:14;;;;;;;30.30;23.77;;;;;;;9.10;80.95;99260.06;2626463;39;20414;-65
2021/11/14 12:42:44;;;;;;;30.98;23.40;;;;;;;9.13;81.00;99257.91;2624881;54;20039;-65
2021/11/14 12:45:13;;;;;;;28.35;22.88;;;;;;;9.07;80.65;99261.22;2624904;54;20030;-66
2021/11/14 12:47:46;;;;;;;28.92;23.00;;;;;;;9.11;80.71;99264.34;2624795;54;20054;-67
2021/11/14 12:50:18;;;;;;;28.73;23.45;;;;;;;9.13;80.88;99276.34;2624493;54;20030;-66